createdAt,value
2022-10-19T00:06:53.030Z,13.33
2022-10-19T00:08:56.628Z,15.67
2022-10-19T00:11:08.052Z,16.97
2022-10-19T00:13:09.669Z,16.87
2022-10-19T00:15:11.230Z,17.07
2022-10-19T00:17:19.040Z,19.77
2022-10-19T00:19:24.047Z,19.20
2022-10-19T00:21:26.358Z,19.60
2022-10-19T00:23:34.051Z,18.90
2022-10-19T00:25:36.986Z,16.87
2022-10-19T00:27:38.964Z,19.13
2022-10-19T00:29:47.073Z,18.10
2022-10-19T00:31:52.100Z,19.07
2022-10-19T00:33:56.335Z,18.70
2022-10-19T00:36:04.047Z,17.63
2022-10-19T00:38:12.077Z,17.47
2022-10-19T00:40:13.849Z,17.80
2022-10-19T00:42:15.390Z,17.13
2022-10-19T00:44:23.101Z,16.60
2022-10-19T00:46:33.072Z,17.50
2022-10-19T00:48:34.632Z,15.80
2022-10-19T00:50:43.102Z,15.20
2022-10-19T00:52:44.788Z,16.17
2022-10-19T00:54:48.609Z,15.43
2022-10-19T00:57:00.088Z,16.80
2022-10-19T00:59:05.763Z,16.63
2022-10-19T01:01:10.861Z,17.70
2022-10-19T01:03:21.146Z,18.20
2022-10-19T01:05:23.229Z,18.13
2022-10-19T01:07:26.289Z,18.47
2022-10-19T01:09:34.115Z,20.30
2022-10-19T01:11:54.603Z,20.37
2022-10-19T01:14:33.884Z,19.60
2022-10-19T01:17:07.106Z,20.13
2022-10-19T01:19:30.038Z,21.07
2022-10-19T01:21:51.552Z,20.87
2022-10-19T01:24:02.115Z,21.27
2022-10-19T01:26:23.592Z,22.50
2022-10-19T01:29:10.255Z,22.37
2022-10-19T01:31:17.770Z,21.67
2022-10-19T01:33:41.009Z,20.67
2022-10-19T01:36:11.159Z,21.30
2022-10-19T01:38:31.121Z,21.73
2022-10-19T01:40:51.193Z,22.17
2022-10-19T01:43:09.235Z,22.23
2022-10-19T01:45:16.743Z,21.87
2022-10-19T01:47:52.018Z,20.60
2022-10-19T01:50:07.240Z,20.67
2022-10-19T01:52:12.648Z,21.47
2022-10-19T01:54:16.999Z,21.73
2022-10-19T01:56:28.184Z,21.23
2022-10-19T01:58:35.489Z,20.87
2022-10-19T02:00:40.049Z,20.93
2022-10-19T02:02:53.173Z,20.20
2022-10-19T02:04:57.665Z,20.23
2022-10-19T02:06:59.592Z,19.93
2022-10-19T02:09:08.178Z,21.80
2022-10-19T02:11:09.792Z,21.43
2022-10-19T02:13:15.157Z,20.03
2022-10-19T02:15:27.206Z,22.43
2022-10-19T02:17:34.321Z,23.20
2022-10-19T02:19:36.340Z,22.97
2022-10-19T02:21:44.203Z,22.37
2022-10-19T02:23:47.532Z,22.23
2022-10-19T02:25:51.524Z,21.57
2022-10-19T02:28:00.227Z,21.93
2022-10-19T02:30:22.407Z,22.37
2022-10-19T02:32:24.070Z,21.87
2022-10-19T02:34:32.236Z,23.00
2022-10-19T02:36:33.912Z,22.33
2022-10-19T02:38:35.567Z,24.00
2022-10-19T02:40:48.240Z,24.17
2022-10-19T02:42:58.387Z,24.20
2022-10-19T02:45:10.858Z,21.53
2022-10-19T02:47:25.237Z,20.80
2022-10-19T02:49:35.266Z,20.80
2022-10-19T02:51:39.914Z,21.17
2022-10-19T02:53:41.516Z,21.07
2022-10-19T02:55:50.288Z,20.73
2022-10-19T02:57:51.871Z,20.53
2022-10-19T02:59:53.405Z,21.57
2022-10-19T03:02:01.262Z,21.20
2022-10-19T03:04:02.905Z,21.80
2022-10-19T03:06:04.472Z,20.80
2022-10-19T03:08:12.289Z,21.77
2022-10-19T03:10:13.848Z,22.00
2022-10-19T03:12:15.828Z,21.27
2022-10-19T03:14:24.262Z,22.20
2022-10-19T03:16:25.886Z,22.47
2022-10-19T03:18:27.413Z,23.17
2022-10-19T03:20:35.307Z,22.57
2022-10-19T03:22:38.577Z,22.17
2022-10-19T03:24:40.145Z,22.53
2022-10-19T03:26:48.288Z,21.50
2022-10-19T03:28:49.899Z,22.47
2022-10-19T03:30:51.635Z,22.70
2022-10-19T03:32:59.297Z,20.63
2022-10-19T03:35:00.821Z,22.03
2022-10-19T03:37:09.285Z,22.80
2022-10-19T03:39:13.753Z,23.67
2022-10-19T03:41:15.410Z,24.03
2022-10-19T03:43:23.357Z,25.17
2022-10-19T03:45:24.921Z,25.63
2022-10-19T03:47:26.525Z,24.57
2022-10-19T03:49:36.766Z,26.23
2022-10-19T03:51:41.095Z,26.10
2022-10-19T03:53:43.556Z,26.37
2022-10-19T03:55:51.337Z,25.30
2022-10-19T03:57:52.917Z,23.30
2022-10-19T03:59:54.447Z,23.43
2022-10-19T04:02:02.322Z,24.53
2022-10-19T04:04:06.961Z,23.27
2022-10-19T04:06:15.801Z,25.30
2022-10-19T04:08:26.382Z,24.43
2022-10-19T04:10:27.911Z,24.80
2022-10-19T04:12:29.482Z,24.17
2022-10-19T04:14:45.808Z,23.73
2022-10-19T04:16:57.720Z,24.17
2022-10-19T04:18:59.978Z,23.40
2022-10-19T04:21:10.441Z,22.70
2022-10-19T04:23:12.168Z,23.07
2022-10-19T04:25:13.791Z,24.30
2022-10-19T04:27:22.370Z,22.13
2022-10-19T04:29:29.481Z,22.90
2022-10-19T04:31:32.305Z,21.37
2022-10-19T04:33:41.405Z,21.07
2022-10-19T04:35:42.996Z,21.43
2022-10-19T04:48:36.381Z,20.30
2022-10-19T04:50:37.943Z,20.33
2022-10-19T04:52:39.514Z,20.00
2022-10-19T04:54:47.393Z,20.53
2022-10-19T04:56:48.995Z,19.37
2022-10-19T04:58:50.520Z,19.10
2022-10-19T05:00:58.380Z,20.20
2022-10-19T05:03:00.156Z,19.50
2022-10-19T05:05:01.842Z,20.37
2022-10-19T05:07:09.404Z,20.10
2022-10-19T05:09:11.098Z,19.87
2022-10-19T05:11:14.718Z,19.77
2022-10-19T05:13:22.423Z,20.00
2022-10-19T05:15:24.025Z,21.30
2022-10-19T05:17:25.629Z,20.57
2022-10-19T05:19:33.430Z,19.67
2022-10-19T05:21:35.088Z,20.50
2022-10-19T05:23:37.178Z,19.80
2022-10-19T05:25:45.453Z,19.93
2022-10-19T05:27:51.507Z,19.07
2022-10-19T05:29:53.035Z,19.53
2022-10-19T05:32:01.434Z,18.90
2022-10-19T05:34:04.178Z,20.30
2022-10-19T05:36:16.691Z,19.37
2022-10-19T05:38:24.441Z,19.07
2022-10-19T05:40:25.997Z,19.17
2022-10-19T05:42:27.855Z,19.20
2022-10-19T05:44:36.464Z,19.27
2022-10-19T05:46:38.034Z,18.73
2022-10-19T05:48:40.623Z,17.80
2022-10-19T05:50:59.481Z,17.77
2022-10-19T05:53:01.011Z,18.20
2022-10-19T05:55:02.603Z,18.93
2022-10-19T05:57:10.471Z,17.73
2022-10-19T05:59:20.391Z,18.43
2022-10-19T06:01:21.939Z,17.53
2022-10-19T06:03:31.531Z,17.17
2022-10-19T06:05:35.677Z,17.93
2022-10-19T06:07:37.441Z,18.57
2022-10-19T06:09:45.489Z,18.80
2022-10-19T06:11:48.078Z,18.63
2022-10-19T06:13:51.445Z,17.40
2022-10-19T06:15:59.626Z,17.57
2022-10-19T06:18:01.195Z,18.20
2022-10-19T06:20:02.762Z,18.67
2022-10-19T06:22:10.522Z,17.30
2022-10-19T06:24:13.086Z,17.77
2022-10-19T06:26:15.208Z,18.63
2022-10-19T06:28:23.529Z,17.67
2022-10-19T06:30:25.937Z,19.10
2022-10-19T06:32:28.537Z,18.67
2022-10-19T06:34:36.528Z,18.13
2022-10-19T06:36:38.088Z,19.10
2022-10-19T06:38:40.184Z,19.63
2022-10-19T06:40:48.621Z,18.63
2022-10-19T06:42:50.542Z,18.87
2022-10-19T06:44:52.157Z,18.93
2022-10-19T06:47:00.534Z,17.77
2022-10-19T06:49:02.496Z,18.97
2022-10-19T06:51:07.533Z,19.80
2022-10-19T06:53:15.528Z,19.13
2022-10-19T06:55:18.000Z,18.90
2022-10-19T06:57:19.573Z,18.90
2022-10-19T06:59:27.562Z,19.20
2022-10-19T07:01:29.362Z,19.17
2022-10-19T07:03:30.999Z,20.97
2022-10-19T07:05:39.543Z,19.00
2022-10-19T07:07:47.667Z,18.83
2022-10-19T07:09:49.473Z,19.13
2022-10-19T07:11:52.153Z,18.27
2022-10-19T07:14:00.582Z,18.83
2022-10-19T07:16:20.571Z,18.03
2022-10-19T07:18:22.873Z,17.83
2022-10-19T07:20:30.595Z,18.53
2022-10-19T07:22:32.177Z,17.47
2022-10-19T07:24:33.736Z,17.63
2022-10-19T07:26:41.626Z,16.93
2022-10-19T07:28:45.457Z,16.73
2022-10-19T07:30:47.006Z,15.63
2022-10-19T07:32:54.613Z,16.57
2022-10-19T07:34:56.151Z,15.77
2022-10-19T07:36:57.699Z,15.87
2022-10-19T07:39:07.617Z,14.73
2022-10-19T07:41:14.268Z,15.40
2022-10-19T07:43:15.792Z,15.27
2022-10-19T07:45:23.618Z,15.07
2022-10-19T07:47:25.181Z,15.23
2022-10-19T07:49:26.728Z,16.03
2022-10-19T07:51:34.652Z,16.73
2022-10-19T07:53:36.893Z,16.37
2022-10-19T07:55:38.416Z,15.17
2022-10-19T07:57:47.139Z,15.23
2022-10-19T07:59:55.660Z,15.90
2022-10-19T08:01:57.358Z,15.47
2022-10-19T08:06:29.671Z,15.33
2022-10-19T08:08:31.350Z,15.10
2022-10-19T08:10:32.928Z,16.10
2022-10-19T08:12:43.650Z,15.23
2022-10-19T08:14:45.267Z,15.57
2022-10-19T08:16:46.808Z,15.63
2022-10-19T08:18:54.680Z,15.33
2022-10-19T08:20:56.370Z,15.00
2022-10-19T08:23:04.726Z,15.80
2022-10-19T08:25:06.459Z,16.23
2022-10-19T08:27:08.101Z,15.83
2022-10-19T08:29:23.795Z,15.70
2022-10-19T08:31:40.769Z,15.10
2022-10-19T08:33:42.909Z,14.90
2022-10-19T08:35:50.684Z,13.87
2022-10-19T08:37:52.571Z,14.67
2022-10-19T08:39:54.533Z,14.87
2022-10-19T08:42:02.676Z,15.00
2022-10-19T08:44:25.946Z,14.53
2022-10-19T08:46:54.077Z,14.40
2022-10-19T08:49:02.708Z,14.43
2022-10-19T08:51:06.399Z,15.43
2022-10-19T08:53:13.967Z,13.97
2022-10-19T08:55:28.682Z,14.70
2022-10-19T08:57:51.717Z,13.77
2022-10-19T09:00:02.754Z,14.60
2022-10-19T09:02:37.327Z,14.10
2022-10-19T09:04:50.718Z,14.43
2022-10-19T09:07:26.306Z,13.50
2022-10-19T09:09:30.756Z,13.27
2022-10-19T09:11:48.744Z,13.40
2022-10-19T09:14:04.636Z,12.50
2022-10-19T09:16:11.969Z,13.10
2022-10-19T09:18:34.760Z,12.90
2022-10-19T09:20:41.289Z,13.17
2022-10-19T09:22:44.373Z,12.50
2022-10-19T09:24:59.835Z,12.27
2022-10-19T09:27:02.116Z,12.47
2022-10-19T09:29:13.220Z,11.83
2022-10-19T09:31:44.809Z,11.47
2022-10-19T09:33:52.347Z,11.40
2022-10-19T09:35:56.584Z,11.00
2022-10-19T09:38:04.766Z,11.23
2022-10-19T09:40:07.223Z,11.40
2022-10-19T09:42:25.769Z,11.57
2022-10-19T09:44:33.760Z,11.37
2022-10-19T09:46:39.031Z,12.23
2022-10-19T09:48:52.289Z,11.03
2022-10-19T09:51:06.774Z,11.73
2022-10-19T09:53:19.132Z,11.60
2022-10-19T09:55:34.917Z,12.37
2022-10-19T09:57:49.802Z,12.33
2022-10-19T09:59:55.313Z,11.97
2022-10-19T10:02:05.905Z,12.07
2022-10-19T10:04:15.781Z,11.60
2022-10-19T10:06:17.785Z,11.90
2022-10-19T10:08:28.844Z,12.00
2022-10-19T10:10:51.806Z,11.70
2022-10-19T10:12:54.017Z,11.63
2022-10-19T10:15:02.788Z,9.93
2022-10-19T10:17:08.136Z,10.67
2022-10-19T10:19:15.640Z,11.73
2022-10-19T10:21:32.802Z,10.30
2022-10-19T10:23:36.407Z,11.07
2022-10-19T10:25:38.009Z,10.53
2022-10-19T10:27:46.815Z,10.63
2022-10-19T10:32:20.205Z,10.63
2022-10-19T10:34:56.898Z,10.57
2022-10-19T10:37:01.223Z,9.80
2022-10-19T10:39:08.379Z,10.27
2022-10-19T10:41:22.839Z,9.70
2022-10-19T10:43:33.354Z,9.73
2022-10-19T10:45:42.702Z,9.43
2022-10-19T10:47:54.879Z,9.63
2022-10-19T10:49:57.964Z,8.63
2022-10-19T10:52:18.631Z,8.50
2022-10-19T10:54:26.856Z,8.47
2022-10-19T10:56:30.258Z,9.73
2022-10-19T10:58:37.453Z,8.50
